Terminal Aerodrome Forecast
Issued by NWS Bismarck, ND

Home | Current Version | Previous Version | Graphics & Text | Print | Product List | Glossary On
Versions: 1 2 3 4 5 6 7 8 9 10 11 12 13 14
362
FTUS43 KBIS 211727 AAC
TAFBIS
TAF AMD
KBIS 211727Z 2117/2218 16023G32KT P6SM BKN045 BKN100
     FM220100 15019G28KT P6SM SCT150
     FM221100 14013G21KT P6SM BKN020
     FM221500 16013KT P6SM VCTS BKN010CB=

USA.gov is the U.S. government's official web portal to all federal, state and local government web resources and services.